Aeroporto :
LOGIN :

Iscrizione | Disclaimer

   EN    FR    IT 

 










Sommario :    VFR   VFR Marginale   IFR   IFR Intensivo   IFR Molto Intensivo
Visibilità : 
Base nubi : 
>= 8 km
>= 3000ft
5 / 8 km
1000 / 3000 ft
1500m / 5 km
500 / 1000 ft
800 / 1500m
200 / 500 ft
< 800m
< 200 ft
Simboli :   Temporali  Nebbia  Neve Forte  Precipitazioni Forti  Vento > 20 kt
SIGMETs :   Varie  Temporali  Ghiacco  Turbolenza  Onda orograficha  Ceneri Vulcaniche






- Altitudine del aeroporto : 348 ft
- Codice IATA : STN


EGSS - London Stansted

ULTIMO METAR :
  • 290920Z AUTO 02019KT 9999 BKN039/// //////TCU 05/M03 Q1037

METARs OBSOLETI :
  • 290850Z AUTO 02015KT 9999 SCT038 06/M03 Q1037
  • 290820Z AUTO 01017KT 9999 FEW043 05/M03 Q1037
  • 290750Z AUTO 01015KT 9999 FEW048 04/M04 Q1036
  • 290720Z 01016KT 9999 SCT045 04/M04 Q1036
  • 290650Z AUTO 01013KT 9999 BKN049 03/M03 Q1036

TAF TAF EGSS
Valido dal 29 a 06 ore il 30 a 12 ore UTC


290454Z 2906/3012 01016KT 9999 SCT045
BECMG 2906/2909 02020G30KT
PROB30
TEMPO 2906/2909 4000 -SHRASN BKN014
PROB30
TEMPO 2909/2915 7000 SHRA
BECMG 2916/2919 02010KT
TEMPO 3000/3012 7000 SHRA BKN014
PROB30
TEMPO 3002/3009 4000 SHRASN BKN008
ATIS : +44 1279 669 325



MetMap, La meteo Aeronautica in un colpo d'occhio ! - Copyright ORBIFLY Dicembre 2007 - Disclaimer

ORBIFLY MET'MAP TEAM :

Programmazione e sviluppo : Alexandra Zaïnal
Concezione : Baudouin d'Aumeries
Aiuto per la programmazione : Marc-Olivier Méhu
Supporto tecnico e logistico : Manuel Goepfert
Aiuto per la traduzione : Arnaldo La Scala

Contatto : metmap@orbifly.com




FONTI E CREDITI :

   NOAA